Time;durP1;ratioP1;P1;durP2;ratioP2;P2;SDS_P1;SDS_P2;PMS_P1;PMS_P2;Temp;Humidity;BMP_temperature;BMP_pressure;BME280_temperature;BME280_humidity;BME280_pressure;Samples;Min_cycle;Max_cycle;Signal;HPM_P1;HPM_P2
2021/06/05 00:00:38;;;;;;;9.83;3.20;;;;;;;17.30;57.09;100934.94;4917584;29;20080;-67
2021/06/05 00:03:06;;;;;;;11.20;4.10;;;;;;;17.13;57.35;100906.50;4920382;29;20062;-71
2021/06/05 00:05:42;;;;;;;13.83;3.73;;;;;;;17.23;57.02;100929.72;4920615;29;20128;-76
2021/06/05 00:08:11;;;;;;;11.17;5.17;;;;;;;17.13;57.38;100912.16;4920209;29;20051;-71
2021/06/05 00:10:42;;;;;;;12.53;5.13;;;;;;;17.14;57.44;100913.84;4920022;29;20139;-71
2021/06/05 00:13:21;;;;;;;11.30;4.73;;;;;;;17.09;57.42;100917.59;4920036;29;20495;-72
2021/06/05 00:15:48;;;;;;;16.40;6.03;;;;;;;17.19;57.14;100920.19;4903300;29;20091;-72
2021/06/05 00:18:16;;;;;;;13.38;3.92;;;;;;;17.20;57.26;100924.69;4920119;29;20078;-74
2021/06/05 00:20:43;;;;;;;11.67;3.60;;;;;;;17.15;57.24;100924.78;4903518;29;20050;-72
2021/06/05 00:23:14;;;;;;;9.43;3.10;;;;;;;17.17;57.58;100930.97;4920086;29;20052;-69
2021/06/05 00:25:42;;;;;;;11.50;3.60;;;;;;;17.15;57.54;100936.09;4919886;29;20083;-64
2021/06/05 00:28:10;;;;;;;12.13;3.33;;;;;;;17.05;57.78;100917.38;4920051;29;20174;-64
2021/06/05 00:30:37;;;;;;;13.00;3.33;;;;;;;17.15;57.66;100938.91;4919637;29;20139;-64
2021/06/05 00:33:06;;;;;;;8.23;3.23;;;;;;;17.14;57.86;100927.94;4919713;29;20091;-65
2021/06/05 00:35:33;;;;;;;15.67;4.17;;;;;;;16.90;57.73;100899.97;4919640;29;20090;-63
2021/06/05 00:38:01;;;;;;;11.13;3.70;;;;;;;17.03;57.72;100930.16;4920046;29;20135;-64
2021/06/05 00:40:33;;;;;;;14.07;4.00;;;;;;;16.89;58.16;100912.38;4919892;29;20075;-68
2021/06/05 00:43:00;;;;;;;16.17;3.47;;;;;;;16.99;58.29;100937.56;4919602;29;20102;-67
2021/06/05 00:45:33;;;;;;;10.40;3.60;;;;;;;16.99;58.24;100932.78;4919823;29;20048;-64
2021/06/05 00:48:00;;;;;;;11.47;3.90;;;;;;;16.77;57.98;100899.66;4902814;29;20076;-65
2021/06/05 00:50:28;;;;;;;15.37;5.30;;;;;;;16.78;57.94;100889.19;4919498;29;20075;-63
2021/06/05 00:52:56;;;;;;;14.30;3.80;;;;;;;16.86;58.14;100898.94;4919420;29;20087;-63
2021/06/05 00:55:27;;;;;;;14.85;4.45;;;;;;;17.02;57.95;100923.66;4919721;29;20056;-64
2021/06/05 00:57:54;;;;;;;19.27;4.10;;;;;;;17.00;58.02;100919.50;4919281;29;20540;-65
2021/06/05 01:00:38;;;;;;;7.53;3.40;;;;;;;16.99;57.73;100926.28;4919139;29;20063;-65
2021/06/05 01:03:06;;;;;;;11.30;3.30;;;;;;;16.96;58.23;100922.13;4919184;29;20135;-65
2021/06/05 01:05:36;;;;;;;11.53;3.30;;;;;;;16.94;58.17;100915.09;4919470;29;20105;-65
2021/06/05 01:08:13;;;;;;;9.25;3.67;;;;;;;16.83;58.20;100908.03;4919484;29;20111;-64
2021/06/05 01:10:42;;;;;;;9.77;3.83;;;;;;;16.79;58.27;100903.00;4902714;29;20501;-65
2021/06/05 01:13:24;;;;;;;16.70;4.13;;;;;;;16.80;58.02;100915.94;4917982;29;20099;-65
2021/06/05 01:15:56;;;;;;;8.40;2.83;;;;;;;16.38;58.46;100845.75;4919089;29;20127;-64
2021/06/05 01:18:49;;;;;;;15.37;3.73;;;;;;;16.77;58.47;100915.75;4918896;29;20052;-64
2021/06/05 01:21:36;;;;;;;13.63;4.10;;;;;;;16.77;58.70;100899.66;4917835;29;20135;-63
2021/06/05 01:24:03;;;;;;;7.37;4.30;;;;;;;16.80;58.54;100915.13;4918792;29;20131;-64
2021/06/05 01:26:37;;;;;;;11.67;4.00;;;;;;;16.80;58.77;100899.03;4918720;29;20136;-64
2021/06/05 01:29:16;;;;;;;17.00;4.67;;;;;;;16.83;58.30;100908.84;4919185;29;20134;-63
2021/06/05 01:31:50;;;;;;;16.90;4.05;;;;;;;16.78;58.40;100895.66;4918893;29;20084;-64
2021/06/05 01:34:19;;;;;;;12.57;4.77;;;;;;;16.84;58.72;100898.41;4901934;29;20107;-62
2021/06/05 01:36:49;;;;;;;11.70;4.57;;;;;;;16.86;58.73;100898.94;4918904;29;20075;-63
2021/06/05 01:39:20;;;;;;;11.02;4.53;;;;;;;16.74;58.60;100882.50;4919041;29;20443;-62
2021/06/05 01:41:48;;;;;;;20.73;5.23;;;;;;;16.91;58.64;100899.63;4918848;29;20127;-64
2021/06/05 01:44:16;;;;;;;12.30;4.83;;;;;;;16.77;58.50;100871.44;4918869;29;20076;-63
2021/06/05 01:46:48;;;;;;;12.10;4.50;;;;;;;16.72;58.24;100879.16;4918633;29;20520;-63
2021/06/05 01:49:17;;;;;;;10.43;4.23;;;;;;;16.94;58.55;100903.81;4918895;29;20135;-63
2021/06/05 01:51:54;;;;;;;11.23;4.67;;;;;;;16.91;58.34;100901.63;4918700;29;20056;-64
2021/06/05 01:54:30;;;;;;;14.33;4.17;;;;;;;16.86;58.21;100899.75;4918752;29;20132;-64
2021/06/05 01:57:00;;;;;;;6.83;3.93;;;;;;;16.85;58.39;100900.88;4918614;29;20075;-62
2021/06/05 01:59:29;;;;;;;9.00;3.53;;;;;;;16.86;58.59;100908.22;4918215;29;20131;-64
2021/06/05 02:01:57;;;;;;;16.43;4.60;;;;;;;16.80;58.88;100901.00;4918612;29;20123;-62
2021/06/05 02:04:25;;;;;;;10.63;3.53;;;;;;;16.71;58.79;100894.41;4918106;29;20131;-62
2021/06/05 02:06:53;;;;;;;15.83;3.93;;;;;;;16.45;59.41;100880.81;4918431;29;20143;-62
2021/06/05 02:09:23;;;;;;;11.47;3.43;;;;;;;16.60;59.29;100907.88;4918262;29;20131;-65
2021/06/05 02:11:57;;;;;;;7.55;3.83;;;;;;;16.59;59.12;100895.75;4917960;29;20143;-65
2021/06/05 02:14:34;;;;;;;19.10;3.67;;;;;;;16.47;59.58;100894.59;4918024;29;20048;-65
2021/06/05 02:17:03;;;;;;;13.80;4.37;;;;;;;16.38;59.98;100900.13;4917975;29;20079;-65
2021/06/05 02:19:38;;;;;;;9.32;3.65;;;;;;;16.09;60.32;100869.38;4917829;29;20608;-64
2021/06/05 02:22:10;;;;;;;8.70;3.40;;;;;;;16.32;60.55;100896.56;4918216;29;20131;-65
2021/06/05 02:24:43;;;;;;;12.67;3.53;;;;;;;16.35;60.17;100895.13;4918000;29;20087;-65
2021/06/05 02:27:15;;;;;;;8.13;3.13;;;;;;;16.34;60.30;100894.28;4917849;29;20052;-64
2021/06/05 02:29:44;;;;;;;7.60;3.70;;;;;;;16.21;59.94;100869.72;4917524;29;20548;-73
2021/06/05 02:32:13;;;;;;;8.63;3.53;;;;;;;16.23;59.90;100872.22;4917919;29;20142;-73
2021/06/05 02:34:42;;;;;;;9.80;3.42;;;;;;;16.47;59.55;100903.88;4917671;29;20066;-72
2021/06/05 02:37:13;;;;;;;11.37;4.00;;;;;;;16.49;59.43;100903.59;4917585;29;20581;-71
2021/06/05 02:39:42;;;;;;;11.83;4.10;;;;;;;16.55;59.68;100902.34;4917789;29;20131;-73
2021/06/05 02:42:17;;;;;;;6.87;3.70;;;;;;;16.42;59.36;100880.63;4917928;29;20103;-70
2021/06/05 02:44:47;;;;;;;8.63;3.50;;;;;;;16.62;59.49;100913.22;4916221;29;20232;-71
2021/06/05 02:47:16;;;;;;;9.97;3.70;;;;;;;16.59;59.28;100909.03;4917192;29;20132;-71
2021/06/05 02:49:44;;;;;;;5.97;3.37;;;;;;;16.63;59.25;100926.97;4917724;29;20119;-70
2021/06/05 02:52:31;;;;;;;8.80;3.80;;;;;;;16.57;59.08;100923.41;4917493;29;20453;-68
2021/06/05 02:55:10;;;;;;;10.93;3.87;;;;;;;16.30;59.21;100884.75;4917294;29;20516;-71
2021/06/05 02:57:38;;;;;;;7.67;3.30;;;;;;;16.38;59.21;100897.31;4917352;29;20135;-69
2021/06/05 03:00:40;;;;;;;8.30;4.40;;;;;;;16.47;59.50;100911.50;4917429;29;20052;-68
2021/06/05 03:03:09;;;;;;;12.10;3.47;;;;;;;16.45;59.46;100916.63;4917371;29;20053;-68
2021/06/05 03:05:37;;;;;;;14.80;3.77;;;;;;;16.41;59.47;100915.56;4917371;29;20123;-68
2021/06/05 03:08:07;;;;;;;9.43;4.03;;;;;;;16.22;60.04;100910.03;4917126;29;20135;-67
2021/06/05 03:10:34;;;;;;;;;;;;;;;16.09;60.35;100911.66;4917688;29;20080;-67
2021/06/05 03:13:03;;;;;;;9.97;3.43;;;;;;;16.02;60.53;100919.66;4917415;29;20419;-72
2021/06/05 03:15:30;;;;;;;7.70;2.60;;;;;;;16.01;60.69;100921.66;4917014;29;20080;-73
2021/06/05 03:17:58;;;;;;;12.30;3.60;;;;;;;15.94;60.97;100924.03;4916889;29;20588;-72
2021/06/05 03:20:32;;;;;;;10.53;3.40;;;;;;;15.94;60.79;100920.38;4917023;29;20056;-72
2021/06/05 03:23:00;;;;;;;9.87;3.27;;;;;;;15.96;60.86;100924.53;4916869;29;20132;-72
2021/06/05 03:25:28;;;;;;;7.33;3.27;;;;;;;15.94;60.52;100911.94;4917277;29;20453;-68
2021/06/05 03:27:57;;;;;;;8.60;4.43;;;;;;;16.04;60.48;100906.13;4917210;29;20539;-69
2021/06/05 03:30:26;;;;;;;11.38;3.20;;;;;;;16.06;60.49;100915.91;4916694;29;20048;-68
2021/06/05 03:32:54;;;;;;;11.23;4.45;;;;;;;16.13;60.01;100917.50;4900338;29;20131;-68
2021/06/05 03:35:21;;;;;;;9.70;3.20;;;;;;;16.14;59.86;100913.53;4916550;29;20051;-67
2021/06/05 03:37:49;;;;;;;9.00;3.50;;;;;;;16.16;59.82;100902.78;4917095;29;20131;-67
2021/06/05 03:40:20;;;;;;;8.73;3.33;;;;;;;16.22;59.88;100908.03;4916982;29;20131;-67
2021/06/05 03:42:47;;;;;;;8.27;3.73;;;;;;;15.96;59.88;100873.00;4916388;29;20052;-67
2021/06/05 03:45:15;;;;;;;8.47;3.33;;;;;;;16.21;59.95;100909.19;4916901;29;20124;-66
2021/06/05 03:47:45;;;;;;;8.17;3.87;;;;;;;16.19;59.94;100913.44;4917028;29;20408;-66
2021/06/05 03:50:15;;;;;;;9.80;3.40;;;;;;;16.21;59.82;100908.34;4916273;29;20083;-66
2021/06/05 03:52:41;;;;;;;12.13;3.72;;;;;;;16.20;59.94;100918.75;4917367;29;20071;-67
2021/06/05 03:55:10;;;;;;;12.47;4.33;;;;;;;15.88;60.26;100852.84;4916701;29;20135;-67
2021/06/05 03:57:38;;;;;;;10.50;4.43;;;;;;;16.19;59.96;100905.81;4916448;29;20052;-68
2021/06/05 04:00:12;;;;;;;26.37;7.60;;;;;;;16.18;59.84;100897.69;4916760;29;20139;-70
2021/06/05 04:02:40;;;;;;;19.67;7.80;;;;;;;16.22;59.65;100910.03;4916525;29;20136;-73
2021/06/05 04:05:08;;;;;;;26.60;8.93;;;;;;;16.22;59.68;100910.03;4916670;29;20130;-73
2021/06/05 04:07:36;;;;;;;20.33;7.60;;;;;;;16.20;59.79;100906.66;4916824;29;20072;-71
2021/06/05 04:10:05;;;;;;;15.67;6.77;;;;;;;16.16;59.89;100917.72;4916226;29;20056;-69
2021/06/05 04:12:32;;;;;;;17.73;5.30;;;;;;;16.09;59.99;100906.84;4916618;29;20048;-68
2021/06/05 04:14:59;;;;;;;14.43;5.37;;;;;;;16.12;60.02;100913.84;4916285;29;20139;-68
2021/06/05 04:17:25;;;;;;;9.07;4.17;;;;;;;16.11;60.20;100912.19;4916296;29;20159;-66
2021/06/05 04:19:53;;;;;;;9.67;3.40;;;;;;;16.08;60.15;100926.88;4916735;29;20437;-65
2021/06/05 04:22:19;;;;;;;12.10;3.40;;;;;;;16.09;60.41;100912.47;4917339;29;20393;-68
2021/06/05 04:24:46;;;;;;;11.87;4.07;;;;;;;16.11;60.37;100915.00;4916395;29;20079;-67
2021/06/05 04:27:13;;;;;;;12.20;4.10;;;;;;;15.85;60.11;100876.00;4916213;29;20055;-66
2021/06/05 04:29:40;;;;;;;13.17;4.50;;;;;;;16.03;60.31;100895.97;4916768;29;20094;-65
2021/06/05 04:32:07;;;;;;;9.07;4.00;;;;;;;16.14;60.12;100916.34;4916893;29;20056;-66
2021/06/05 04:34:35;;;;;;;9.20;3.87;;;;;;;15.96;59.94;100899.19;4917311;29;20083;-64
2021/06/05 04:37:02;;;;;;;7.47;3.83;;;;;;;16.04;60.30;100903.31;4916133;29;20529;-65
2021/06/05 04:39:29;;;;;;;10.33;4.10;;;;;;;16.08;60.27;100922.09;4916175;29;20140;-65
2021/06/05 04:41:56;;;;;;;10.30;4.20;;;;;;;16.06;60.03;100915.09;4916066;29;20052;-64
2021/06/05 04:44:23;;;;;;;9.60;3.87;;;;;;;16.07;59.98;100925.22;4916161;29;20058;-64
2021/06/05 04:46:50;;;;;;;9.50;4.03;;;;;;;16.04;60.11;100926.66;4916388;29;20079;-65
2021/06/05 04:49:17;;;;;;;17.47;4.07;;;;;;;16.02;59.96;100928.13;4919469;29;20052;-65
2021/06/05 04:51:45;;;;;;;9.80;3.90;;;;;;;15.63;60.31;100885.09;4919391;29;20059;-65
2021/06/05 04:54:12;;;;;;;9.70;3.47;;;;;;;15.85;60.66;100928.69;4919485;29;20107;-65
2021/06/05 04:56:44;;;;;;;10.30;3.57;;;;;;;15.76;61.15;100939.81;4919691;29;20462;-65
2021/06/05 04:59:13;;;;;;;11.77;4.10;;;;;;;15.64;61.50;100937.41;4919824;29;20140;-67
2021/06/05 05:01:41;;;;;;;9.27;3.22;;;;;;;15.55;61.74;100935.59;4919260;29;20142;-80
2021/06/05 05:04:08;;;;;;;9.20;3.43;;;;;;;15.38;61.84;100928.53;4919188;29;20052;-72
2021/06/05 05:06:36;;;;;;;8.73;3.87;;;;;;;15.12;62.67;100921.59;4919319;29;20143;-66
2021/06/05 05:09:05;;;;;;;7.23;2.93;;;;;;;15.21;62.86;100958.31;4919543;29;20126;-69
2021/06/05 05:11:31;;;;;;;13.43;3.70;;;;;;;15.09;63.24;100955.94;4919027;29;20091;-63
2021/06/05 05:13:58;;;;;;;7.07;4.93;;;;;;;15.03;63.47;100957.97;4918982;29;20052;-65
2021/06/05 05:16:25;;;;;;;8.53;3.60;;;;;;;14.91;63.96;100960.41;4919368;29;20390;-66
2021/06/05 05:18:54;;;;;;;6.30;3.43;;;;;;;14.74;64.29;100932.78;4918943;29;20469;-64
2021/06/05 05:21:22;;;;;;;8.57;3.60;;;;;;;14.87;64.15;100943.28;4919062;29;20143;-67
2021/06/05 05:23:50;;;;;;;5.77;3.30;;;;;;;14.90;64.35;100953.91;4918955;29;20079;-65
2021/06/05 05:26:17;;;;;;;8.07;3.40;;;;;;;14.81;64.38;100927.63;4917947;29;20131;-75
2021/06/05 05:28:45;;;;;;;12.87;4.17;;;;;;;15.02;64.20;100961.09;4919379;29;20135;-79
2021/06/05 05:31:15;;;;;;;9.30;4.17;;;;;;;15.15;64.01;100966.00;4918766;29;20131;-73
2021/06/05 05:33:42;;;;;;;9.20;3.92;;;;;;;15.31;63.45;100955.38;4918815;29;20048;-67
2021/06/05 05:36:26;;;;;;;10.43;4.37;;;;;;;15.65;62.88;100964.44;4918937;29;20489;-68
2021/06/05 05:38:53;;;;;;;14.57;3.93;;;;;;;15.85;62.57;100954.84;4919006;29;20147;-67
2021/06/05 05:41:22;;;;;;;10.43;4.37;;;;;;;16.01;62.18;100946.16;4918566;29;20135;-64
2021/06/05 05:43:50;;;;;;;15.47;4.47;;;;;;;16.24;62.03;100945.22;4918873;29;20450;-65
2021/06/05 05:46:17;;;;;;;9.50;3.50;;;;;;;16.61;61.72;100970.72;4918293;29;20493;-69
2021/06/05 05:48:44;;;;;;;13.60;4.37;;;;;;;16.66;61.15;100942.44;4919183;29;20048;-64
2021/06/05 05:51:13;;;;;;;12.90;4.27;;;;;;;17.04;61.06;100968.50;4917491;29;20139;-62
2021/06/05 05:53:41;;;;;;;10.95;3.53;;;;;;;17.23;60.57;100977.69;4918562;29;20153;-65
2021/06/05 05:56:11;;;;;;;14.23;4.90;;;;;;;17.39;60.34;100972.53;4918336;29;20136;-61
2021/06/05 05:58:39;;;;;;;;;;;;;;;17.57;60.07;100972.69;4918628;29;20067;-69
2021/06/05 06:01:09;;;;;;;17.83;5.33;;;;;;;17.71;59.74;100965.88;4901579;29;20017;-61
2021/06/05 06:03:36;;;;;;;9.52;3.97;;;;;;;17.96;59.28;100969.28;4918535;29;20107;-60
2021/06/05 06:06:04;;;;;;;11.15;4.30;;;;;;;18.14;58.93;100954.09;4918247;29;20445;-61
2021/06/05 06:08:32;;;;;;;11.73;4.43;;;;;;;18.41;58.43;100969.25;4901467;29;20094;-63
2021/06/05 06:10:59;;;;;;;8.35;3.53;;;;;;;18.61;58.11;100973.53;4918032;29;20135;-64
2021/06/05 06:13:26;;;;;;;9.85;4.57;;;;;;;18.78;57.29;100973.63;4918075;29;20048;-62
2021/06/05 06:15:53;;;;;;;13.73;4.32;;;;;;;18.93;57.20;100963.88;4918813;29;20425;-67
2021/06/05 06:18:20;;;;;;;10.30;4.72;;;;;;;18.97;56.64;100976.19;4918226;29;20068;-60
2021/06/05 06:20:50;;;;;;;9.65;4.60;;;;;;;18.96;56.45;100971.72;4918237;29;20135;-70
2021/06/05 06:23:21;;;;;;;11.05;4.75;;;;;;;18.88;56.61;100955.53;4917939;29;20139;-62
2021/06/05 06:25:50;;;;;;;11.88;5.63;;;;;;;18.96;56.18;100968.88;4918203;29;20066;-63
2021/06/05 06:28:23;;;;;;;10.50;5.47;;;;;;;18.99;56.32;100959.75;4918098;29;20131;-64
2021/06/05 06:30:51;;;;;;;12.82;5.00;;;;;;;19.06;56.05;100967.75;4917499;29;20144;-63
2021/06/05 06:33:19;;;;;;;12.88;5.25;;;;;;;18.92;56.21;100956.56;4917580;29;20478;-62
2021/06/05 06:35:46;;;;;;;11.00;4.78;;;;;;;18.94;56.15;100972.06;4917691;29;20139;-62
2021/06/05 06:38:24;;;;;;;10.07;5.22;;;;;;;19.12;56.35;100972.94;4917520;29;20102;-63
2021/06/05 06:40:51;;;;;;;10.50;5.20;;;;;;;19.54;55.39;100975.38;4900732;29;20589;-62
2021/06/05 06:43:26;;;;;;;8.25;5.10;;;;;;;20.01;54.72;100964.25;4917463;29;20134;-62
2021/06/05 06:45:55;;;;;;;8.35;4.63;;;;;;;20.55;53.73;100962.69;4917133;29;20048;-61
2021/06/05 06:48:23;;;;;;;12.52;5.68;;;;;;;21.01;53.16;100980.06;4917600;29;20068;-62
2021/06/05 06:50:50;;;;;;;7.43;5.20;;;;;;;21.38;52.52;100984.06;4917580;29;20111;-62
2021/06/05 06:53:18;;;;;;;8.50;4.75;;;;;;;21.76;51.50;100975.44;4917619;29;20132;-62
2021/06/05 06:55:45;;;;;;;21.08;9.60;;;;;;;22.13;50.96;100978.47;4917464;29;20094;-62
2021/06/05 06:58:12;;;;;;;28.23;13.00;;;;;;;22.64;50.36;100990.56;4917415;29;20138;-62
2021/06/05 07:00:43;;;;;;;21.98;12.02;;;;;;;23.08;49.17;100970.13;4918129;29;20127;-62
2021/06/05 07:03:11;;;;;;;15.15;8.32;;;;;;;23.51;48.08;100980.06;4916334;29;20386;-62
2021/06/05 07:05:38;;;;;;;11.82;5.30;;;;;;;23.83;47.47;100989.69;4917204;29;20188;-62
2021/06/05 07:08:24;;;;;;;7.90;4.97;;;;;;;24.08;47.21;100977.00;4917238;29;20079;-63
2021/06/05 07:10:55;;;;;;;11.98;5.03;;;;;;;24.39;46.39;100971.75;4916323;29;20561;-62
2021/06/05 07:13:24;;;;;;;9.68;4.90;;;;;;;24.64;45.65;100978.19;4916856;29;20052;-64
2021/06/05 07:15:52;;;;;;;10.30;5.53;;;;;;;24.69;45.65;100972.22;4917289;29;20078;-59
2021/06/05 07:18:22;;;;;;;8.63;5.07;;;;;;;24.90;45.05;100989.09;4917194;29;20059;-59
2021/06/05 07:20:50;;;;;;;9.55;4.70;;;;;;;25.05;45.08;100993.97;4917035;29;20087;-62
2021/06/05 07:23:25;;;;;;;10.20;5.30;;;;;;;25.31;44.71;100989.75;4916927;29;20087;-62
2021/06/05 07:25:52;;;;;;;12.80;5.65;;;;;;;25.54;43.63;100982.16;4916837;29;20139;-62
2021/06/05 07:28:33;;;;;;;12.65;5.30;;;;;;;25.74;43.28;100985.88;4916691;29;20147;-62
2021/06/05 07:31:03;;;;;;;13.30;5.60;;;;;;;25.94;42.90;100981.03;4916896;29;20130;-62
2021/06/05 07:33:30;;;;;;;;;;;;;;;26.03;44.47;100987.38;4916887;29;20044;-62
2021/06/05 07:35:58;;;;;;;13.20;5.68;;;;;;;26.26;43.38;100989.47;4916383;29;19923;-62
2021/06/05 07:38:27;;;;;;;11.77;6.63;;;;;;;26.40;42.39;100982.03;4916686;29;20527;-62
2021/06/05 07:40:56;;;;;;;17.45;6.75;;;;;;;26.56;42.03;100984.81;4916614;29;20144;-62
2021/06/05 07:43:28;;;;;;;12.52;6.43;;;;;;;26.61;41.64;100970.19;4916852;29;20083;-62
2021/06/05 07:45:56;;;;;;;16.50;7.53;;;;;;;26.82;41.42;100983.28;4916060;29;20103;-62
2021/06/05 07:48:25;;;;;;;12.73;5.93;;;;;;;26.96;41.27;100989.25;4915927;29;20067;-62
2021/06/05 07:50:52;;;;;;;14.93;5.95;;;;;;;26.95;40.94;100981.88;4915979;29;20139;-62
2021/06/05 07:53:19;;;;;;;11.23;5.13;;;;;;;27.06;40.82;100982.06;4916180;29;20465;-62
2021/06/05 07:55:46;;;;;;;12.82;5.38;;;;;;;27.20;40.53;100988.06;4916139;29;20135;-62
2021/06/05 07:58:13;;;;;;;8.05;4.75;;;;;;;27.36;40.63;100983.00;4916721;29;20245;-62
2021/06/05 08:00:40;;;;;;;12.40;5.28;;;;;;;27.49;40.29;100989.38;4916387;29;20112;-62
2021/06/05 08:03:08;;;;;;;11.77;5.72;;;;;;;27.52;40.12;100980.00;4916739;29;20148;-62
2021/06/05 08:05:37;;;;;;;11.50;5.50;;;;;;;27.68;39.95;100973.25;4916702;29;20391;-62
2021/06/05 08:08:06;;;;;;;12.20;5.82;;;;;;;27.78;39.76;100978.34;4916318;29;20079;-62
2021/06/05 08:10:33;;;;;;;10.40;6.05;;;;;;;27.87;39.81;100981.75;4916614;29;20052;-62
2021/06/05 08:13:01;;;;;;;14.00;5.88;;;;;;;27.98;39.59;100982.72;4916614;29;20477;-62
2021/06/05 08:15:32;;;;;;;8.23;4.38;;;;;;;27.86;39.44;100969.47;4916657;29;20127;-62
2021/06/05 08:18:00;;;;;;;12.13;5.90;;;;;;;27.98;39.25;100970.44;4916176;29;20128;-63
2021/06/05 08:20:37;;;;;;;14.80;6.13;;;;;;;28.09;39.55;100977.94;4916301;29;20059;-63
2021/06/05 08:23:07;;;;;;;9.20;5.35;;;;;;;28.29;39.16;100980.66;4918942;29;20760;-63
2021/06/05 08:25:34;;;;;;;10.18;4.72;;;;;;;28.37;38.72;100975.81;4919517;29;20135;-64
2021/06/05 08:28:04;;;;;;;12.43;6.10;;;;;;;28.47;38.76;100973.09;4919515;29;20139;-65
2021/06/05 08:30:36;;;;;;;11.52;4.90;;;;;;;28.50;38.62;100975.19;4919309;29;20048;-64
2021/06/05 08:33:04;;;;;;;11.57;5.00;;;;;;;28.41;38.83;100959.50;4919214;29;20505;-64
2021/06/05 08:35:31;;;;;;;10.95;4.80;;;;;;;28.48;38.46;100989.16;4919354;29;20052;-64
2021/06/05 08:37:59;;;;;;;13.40;4.93;;;;;;;28.66;38.18;100983.59;4920051;29;20123;-64
2021/06/05 08:40:49;;;;;;;13.55;4.95;;;;;;;28.68;38.42;100974.56;4920010;29;20420;-64
2021/06/05 08:43:23;;;;;;;9.30;4.60;;;;;;;28.73;37.92;100971.34;4902882;29;20398;-63
2021/06/05 08:45:51;;;;;;;7.35;4.05;;;;;;;28.89;37.46;100977.69;4919728;29;20084;-64
2021/06/05 08:48:20;;;;;;;10.53;3.83;;;;;;;28.96;37.35;100980.63;4919532;29;20052;-64
2021/06/05 08:50:47;;;;;;;10.75;3.28;;;;;;;28.96;37.29;100974.88;4919497;29;20351;-64
2021/06/05 08:53:24;;;;;;;7.45;3.28;;;;;;;29.09;36.66;100972.53;4902702;29;20130;-62
2021/06/05 08:55:56;;;;;;;7.85;3.20;;;;;;;29.16;36.67;100971.75;4919337;29;20135;-62
2021/06/05 08:58:40;;;;;;;7.63;3.15;;;;;;;29.06;36.68;100964.72;4919341;29;20666;-62
2021/06/05 09:01:15;;;;;;;10.38;3.45;;;;;;;28.74;36.38;100909.75;4919332;29;20058;-62
2021/06/05 09:03:45;;;;;;;9.80;3.70;;;;;;;29.24;36.04;100959.94;4919570;29;20092;-62
2021/06/05 09:06:20;;;;;;;9.48;3.67;;;;;;;29.40;35.95;100956.78;4919333;29;20493;-63
2021/06/05 09:08:47;;;;;;;9.57;4.25;;;;;;;29.58;35.87;100961.81;4902500;29;20083;-62
2021/06/05 09:11:16;;;;;;;10.93;4.13;;;;;;;29.64;35.51;100963.97;4919438;29;20139;-62
2021/06/05 09:13:44;;;;;;;11.57;3.63;;;;;;;29.75;36.11;100967.72;4919212;29;20070;-63
2021/06/05 09:16:20;;;;;;;12.82;4.45;;;;;;;29.94;36.08;100966.56;4919507;29;20131;-63
2021/06/05 09:18:52;;;;;;;9.88;4.00;;;;;;;30.08;34.97;100960.06;4919227;29;20060;-63
2021/06/05 09:21:50;;;;;;;12.07;5.28;;;;;;;30.11;35.67;100967.06;4919286;29;20576;-63
2021/06/05 09:24:35;;;;;;;11.05;5.53;;;;;;;30.21;35.65;100958.50;4918816;29;20142;-63
2021/06/05 09:27:17;;;;;;;10.20;4.43;;;;;;;30.24;35.23;100959.75;4902204;29;20096;-62
2021/06/05 09:29:48;;;;;;;8.07;4.80;;;;;;;30.36;34.83;100959.41;4919302;29;20127;-63
2021/06/05 09:32:18;;;;;;;8.00;3.72;;;;;;;30.39;34.68;100964.34;4918854;29;20572;-63
2021/06/05 09:34:53;;;;;;;9.68;3.80;;;;;;;30.43;34.49;100961.47;4918136;29;20489;-63
2021/06/05 09:37:31;;;;;;;7.40;4.18;;;;;;;30.66;34.25;100966.88;4918003;29;20048;-63
2021/06/05 09:40:14;;;;;;;10.15;3.65;;;;;;;30.74;34.53;100965.66;4918875;29;20560;-63
2021/06/05 09:42:45;;;;;;;8.50;3.42;;;;;;;30.84;33.72;100964.88;4918993;29;20467;-63
2021/06/05 09:45:36;;;;;;;9.73;3.80;;;;;;;30.79;34.41;100952.91;4918706;29;20519;-63
2021/06/05 09:48:25;;;;;;;7.68;3.88;;;;;;;30.92;33.86;100969.41;4918879;29;20136;-62
2021/06/05 09:51:02;;;;;;;9.05;3.70;;;;;;;31.02;33.31;100964.06;4902134;29;20150;-62
2021/06/05 09:53:30;;;;;;;8.13;3.63;;;;;;;31.01;33.43;100973.94;4918582;29;20079;-63
2021/06/05 09:56:23;;;;;;;9.10;4.57;;;;;;;31.08;33.66;100954.59;4901948;29;20131;-63
2021/06/05 09:59:23;;;;;;;7.95;4.22;;;;;;;31.16;33.36;100961.19;4918161;29;20397;-62
2021/06/05 10:02:05;;;;;;;10.30;4.57;;;;;;;31.22;33.42;100958.72;4919244;29;20135;-62
2021/06/05 10:04:34;;;;;;;7.38;4.85;;;;;;;31.37;33.10;100951.72;4918338;29;20138;-62
2021/06/05 10:07:03;;;;;;;10.35;4.40;;;;;;;31.49;33.01;100962.00;4918700;29;20127;-62
2021/06/05 10:09:35;;;;;;;19.98;7.72;;;;;;;31.53;32.70;100957.88;4918595;29;20098;-62
2021/06/05 10:12:08;;;;;;;14.45;6.32;;;;;;;31.68;32.64;100961.56;4918082;29;20087;-62
2021/06/05 10:14:38;;;;;;;10.90;5.28;;;;;;;31.71;31.87;100969.41;4918544;29;20048;-62
2021/06/05 10:17:37;;;;;;;12.80;5.35;;;;;;;31.61;32.15;100938.47;4918157;29;20139;-62
2021/06/05 10:20:41;;;;;;;17.20;5.35;;;;;;;31.83;31.87;100959.44;4918177;29;20080;-62
2021/06/05 10:23:09;;;;;;;10.90;3.88;;;;;;;31.92;31.67;100944.63;4902077;29;20072;-62
2021/06/05 10:25:40;;;;;;;10.30;3.33;;;;;;;31.85;31.31;100916.56;4919059;29;20147;-62
2021/06/05 10:28:20;;;;;;;8.50;3.42;;;;;;;32.13;31.50;100961.84;4901257;29;20078;-62
2021/06/05 10:30:54;;;;;;;5.07;2.88;;;;;;;32.20;31.40;100949.44;4918230;29;20048;-63
2021/06/05 10:33:48;;;;;;;5.15;2.60;;;;;;;32.12;31.68;100954.44;4917808;29;20115;-63
2021/06/05 10:36:18;;;;;;;4.85;2.67;;;;;;;32.16;31.14;100966.78;4917797;29;20139;-62
2021/06/05 10:38:52;;;;;;;10.85;3.90;;;;;;;32.04;31.42;100955.72;4917759;29;20052;-63
2021/06/05 10:41:24;;;;;;;9.82;4.07;;;;;;;32.14;31.47;100968.44;4917987;29;20453;-63
2021/06/05 10:43:51;;;;;;;10.05;3.72;;;;;;;32.15;31.02;100959.38;4917546;29;20075;-68
2021/06/05 10:46:28;;;;;;;8.98;3.63;;;;;;;32.33;30.61;100953.50;4917461;29;20148;-62
2021/06/05 10:49:11;;;;;;;11.07;3.55;;;;;;;32.41;31.16;100960.06;4918657;29;20052;-62
2021/06/05 10:51:42;;;;;;;7.85;3.60;;;;;;;32.28;30.68;100928.78;4917848;29;20098;-62
2021/06/05 10:54:22;;;;;;;5.95;3.45;;;;;;;32.48;31.00;100962.94;4917431;29;20142;-62
2021/06/05 10:57:23;;;;;;;6.97;4.80;;;;;;;32.53;30.59;100956.75;4917520;29;20148;-62
2021/06/05 10:59:57;;;;;;;4.97;3.45;;;;;;;32.53;30.72;100953.84;4917338;29;20572;-62
2021/06/05 11:02:36;;;;;;;7.05;2.90;;;;;;;32.51;30.17;100959.22;4917389;29;20589;-62
2021/06/05 11:05:32;;;;;;;5.65;3.33;;;;;;;32.54;30.38;100958.38;4917627;29;20143;-62
2021/06/05 11:08:08;;;;;;;4.13;2.90;;;;;;;32.66;29.78;100952.13;4917247;29;20087;-62
2021/06/05 11:10:47;;;;;;;3.78;2.17;;;;;;;32.64;29.34;100951.72;4917541;29;20075;-62
2021/06/05 11:13:32;;;;;;;;;;;;;;;32.38;31.38;100952.25;4917834;29;20056;-62
2021/06/05 11:16:02;;;;;;;5.68;2.80;;;;;;;32.71;29.92;100945.88;4917197;29;19923;-63
2021/06/05 11:18:43;;;;;;;5.28;2.40;;;;;;;32.70;29.78;100943.41;4916861;29;20580;-63
2021/06/05 11:21:22;;;;;;;4.38;2.20;;;;;;;32.88;29.54;100940.38;4917422;29;20209;-62
2021/06/05 11:23:58;;;;;;;3.63;2.35;;;;;;;32.88;29.46;100931.72;4917055;29;20564;-63
2021/06/05 11:26:37;;;;;;;7.55;2.17;;;;;;;32.98;29.05;100942.41;4917309;29;20096;-62
2021/06/05 11:29:19;;;;;;;5.85;2.28;;;;;;;33.11;29.28;100939.81;4917529;29;20394;-62
2021/06/05 11:31:50;;;;;;;5.05;1.98;;;;;;;33.26;28.99;100947.94;4917244;29;20048;-62
2021/06/05 11:34:29;;;;;;;4.28;1.98;;;;;;;33.08;28.95;100929.91;4917152;29;20451;-61
2021/06/05 11:37:15;;;;;;;7.43;2.60;;;;;;;33.05;28.70;100921.28;4916910;29;20497;-62
2021/06/05 11:39:45;;;;;;;6.47;2.83;;;;;;;33.25;28.15;100949.19;4917200;29;20479;-62
2021/06/05 11:42:18;;;;;;;4.72;1.80;;;;;;;33.43;28.20;100928.75;4916877;29;20110;-62